createdAt,value
2016-05-26T00:00:15.699Z,15.31
2016-05-26T00:01:15.717Z,15.34
2016-05-26T00:02:15.735Z,15.31
2016-05-26T00:03:16.003Z,15.29
2016-05-26T00:04:15.570Z,15.28
2016-05-26T00:05:15.743Z,15.28
2016-05-26T00:06:15.950Z,15.21
2016-05-26T00:07:15.748Z,15.17
2016-05-26T00:08:15.751Z,15.31
2016-05-26T00:09:15.754Z,15.34
2016-05-26T00:10:15.756Z,15.27
2016-05-26T00:11:15.775Z,15.23
2016-05-26T00:12:15.855Z,15.32
2016-05-26T00:13:15.796Z,15.25
2016-05-26T00:14:15.784Z,15.21
2016-05-26T00:15:15.802Z,15.28
2016-05-26T00:16:15.805Z,15.17
2016-05-26T00:17:15.666Z,15.29
2016-05-26T00:18:16.466Z,15.31
2016-05-26T00:19:15.828Z,15.19
2016-05-26T00:20:15.878Z,15.21
2016-05-26T00:21:15.833Z,15.2
2016-05-26T00:22:15.868Z,15.2
2016-05-26T00:23:15.902Z,15.21
2016-05-26T00:24:15.888Z,15.27
2016-05-26T00:25:15.876Z,15.19
2016-05-26T00:26:15.893Z,15.23
2016-05-26T00:27:15.740Z,15.23
2016-05-26T00:28:16.118Z,15.21
2016-05-26T00:29:15.948Z,15.25
2016-05-26T00:30:29.998Z,15.16
2016-05-26T00:31:16.360Z,15.16
2016-05-26T00:32:15.487Z,15.19
2016-05-26T00:33:16.068Z,15.25
2016-05-26T00:34:15.978Z,15.17
2016-05-26T00:35:15.965Z,15.14
2016-05-26T00:36:15.859Z,15.19
2016-05-26T00:37:15.971Z,15.14
2016-05-26T00:38:16.207Z,15.16
2016-05-26T00:39:16.007Z,15.1
2016-05-26T00:40:16.009Z,15.14
2016-05-26T00:41:16.012Z,15.1
2016-05-26T00:42:15.843Z,15.06
2016-05-26T00:43:16.033Z,15.03
2016-05-26T00:44:16.083Z,15.01
2016-05-26T00:45:16.054Z,15.03
2016-05-26T00:46:16.057Z,14.98
2016-05-26T00:47:16.044Z,15.01
2016-05-26T00:48:17.063Z,14.92
2016-05-26T00:49:16.065Z,14.94
2016-05-26T00:50:16.068Z,14.91
2016-05-26T00:51:16.086Z,14.92
2016-05-26T00:52:16.073Z,14.84
2016-05-26T00:53:15.935Z,14.83
2016-05-26T00:54:16.110Z,14.84
2016-05-26T00:55:16.112Z,14.8
2016-05-26T00:56:16.115Z,14.8
2016-05-26T00:57:16.118Z,14.77
2016-05-26T00:58:16.136Z,14.69
2016-05-26T00:59:16.154Z,14.68
2016-05-26T01:00:16.141Z,14.69
2016-05-26T01:01:30.410Z,14.55
2016-05-26T01:02:16.178Z,14.7
2016-05-26T01:03:16.009Z,14.58
2016-05-26T01:04:15.871Z,14.64
2016-05-26T01:05:16.171Z,14.65
2016-05-26T01:06:16.189Z,14.54
2016-05-26T01:07:16.582Z,14.68
2016-05-26T01:08:16.209Z,14.7
2016-05-26T01:09:16.228Z,14.6
2016-05-26T01:10:16.200Z,14.47
2016-05-26T01:11:16.233Z,14.5
2016-05-26T01:12:16.221Z,14.51
2016-05-26T01:13:30.301Z,14.46
2016-05-26T01:14:16.241Z,14.47
2016-05-26T01:15:16.072Z,14.37
2016-05-26T01:16:16.263Z,14.33
2016-05-26T01:17:16.281Z,14.32
2016-05-26T01:18:16.393Z,14.28
2016-05-26T01:19:16.255Z,14.28
2016-05-26T01:20:16.305Z,14.27
2016-05-26T01:21:16.277Z,14.24
2016-05-26T01:22:16.279Z,14.29
2016-05-26T01:24:16.300Z,14.07
2016-05-26T01:25:16.302Z,14.07
2016-05-26T01:26:16.321Z,14.15
2016-05-26T01:27:16.323Z,14.12
2016-05-26T01:28:16.326Z,14.09
2016-05-26T01:29:16.532Z,14.02
2016-05-26T01:30:16.331Z,14.03
2016-05-26T01:31:16.350Z,14.03
2016-05-26T01:32:16.337Z,14.09
2016-05-26T01:33:16.699Z,13.99
2016-05-26T01:34:16.436Z,14.03
2016-05-26T01:35:16.376Z,13.99
2016-05-26T01:36:16.363Z,13.97
2016-05-26T01:37:16.382Z,13.89
2016-05-26T01:38:16.385Z,13.87
2016-05-26T01:39:16.387Z,13.87
2016-05-26T01:40:16.234Z,13.96
2016-05-26T01:41:16.408Z,13.88
2016-05-26T01:42:16.411Z,13.91
2016-05-26T01:43:16.273Z,13.88
2016-05-26T01:44:16.275Z,13.91
2016-05-26T01:45:16.434Z,13.92
2016-05-26T01:46:16.264Z,13.92
2016-05-26T01:47:16.861Z,13.91
2016-05-26T01:48:16.145Z,13.99
2016-05-26T01:49:16.632Z,14.03
2016-05-26T01:50:16.463Z,14
2016-05-26T01:51:16.450Z,14
2016-05-26T01:52:16.656Z,13.99
2016-05-26T01:53:16.488Z,13.97
2016-05-26T01:54:16.349Z,14.07
2016-05-26T01:55:16.727Z,14.03
2016-05-26T01:56:16.480Z,14.03
2016-05-26T01:57:16.514Z,14
2016-05-26T01:58:16.501Z,14
2016-05-26T01:59:16.347Z,13.99
2016-05-26T02:00:16.506Z,14.02
2016-05-26T02:01:16.555Z,14.07
2016-05-26T02:02:16.527Z,14.09
2016-05-26T02:03:16.592Z,14.04
2016-05-26T02:04:16.579Z,14.07
2016-05-26T02:05:16.550Z,14.12
2016-05-26T02:06:16.554Z,14.14
2016-05-26T02:07:16.759Z,14.09
2016-05-26T02:08:16.574Z,14.09
2016-05-26T02:09:16.576Z,14.14
2016-05-26T02:10:16.595Z,14.07
2016-05-26T02:11:16.426Z,14.07
2016-05-26T02:12:16.584Z,14.1
2016-05-26T02:13:16.588Z,14.17
2016-05-26T02:14:16.622Z,14
2016-05-26T02:15:16.624Z,14.12
2016-05-26T02:16:16.455Z,14.1
2016-05-26T02:17:16.473Z,14.03
2016-05-26T02:18:17.039Z,14.09
2016-05-26T02:19:16.667Z,14.17
2016-05-26T02:20:16.638Z,14.12
2016-05-26T02:21:16.516Z,14.14
2016-05-26T02:22:16.659Z,14.17
2016-05-26T02:23:16.677Z,14.2
2016-05-26T02:24:16.180Z,14.1
2016-05-26T02:25:16.369Z,14.18
2016-05-26T02:26:16.685Z,14.22
2016-05-26T02:27:16.688Z,14.15
2016-05-26T02:28:16.768Z,14.2
2016-05-26T02:29:16.724Z,14.21
2016-05-26T02:30:16.712Z,14.22
2016-05-26T02:31:17.135Z,14.17
2016-05-26T02:32:16.888Z,14.18
2016-05-26T02:33:17.110Z,14.2
2016-05-26T02:34:16.738Z,14.21
2016-05-26T02:35:16.741Z,14.17
2016-05-26T02:36:16.759Z,14.17
2016-05-26T02:37:16.606Z,14.17
2016-05-26T02:38:16.780Z,14.24
2016-05-26T02:39:16.814Z,14.27
2016-05-26T02:40:16.801Z,14.27
2016-05-26T02:41:16.632Z,14.28
2016-05-26T02:42:16.790Z,14.22
2016-05-26T02:43:16.653Z,14.21
2016-05-26T02:44:16.687Z,14.21
2016-05-26T02:45:16.720Z,14.25
2016-05-26T02:46:16.786Z,14.24
2016-05-26T02:47:16.585Z,14.22
2016-05-26T02:48:16.900Z,14.27
2016-05-26T02:49:16.856Z,14.25
2016-05-26T02:50:16.765Z,14.27
2016-05-26T02:51:16.861Z,14.27
2016-05-26T02:52:16.942Z,14.2
2016-05-26T02:53:16.883Z,14.2
2016-05-26T02:54:16.870Z,14.33
2016-05-26T02:55:16.780Z,14.24
2016-05-26T02:56:16.921Z,14.29
2016-05-26T02:57:16.769Z,14.33
2016-05-26T02:58:16.913Z,14.24
2016-05-26T02:59:17.133Z,14.21
2016-05-26T03:00:31.199Z,14.28
2016-05-26T03:01:16.966Z,14.27
2016-05-26T03:02:16.969Z,14.29
2016-05-26T03:03:16.972Z,14.32
2016-05-26T03:04:17.178Z,14.24
2016-05-26T03:05:16.977Z,14.35
2016-05-26T03:06:17.293Z,14.29
2016-05-26T03:07:17.076Z,14.25
2016-05-26T03:08:17.205Z,14.29
2016-05-26T03:09:17.004Z,14.29
2016-05-26T03:11:24.009Z,14.24
2016-05-26T03:12:25.043Z,14.35
2016-05-26T03:13:18.781Z,14.22
2016-05-26T03:14:19.409Z,14.32
2016-05-26T03:15:17.911Z,14.33
2016-05-26T03:16:18.086Z,14.29
2016-05-26T03:17:17.557Z,14.35
2016-05-26T03:18:18.762Z,14.27
2016-05-26T03:19:32.000Z,14.29
2016-05-26T03:21:18.302Z,14.28
2016-05-26T03:23:45.369Z,14.32
2016-05-26T03:24:17.872Z,14.32
2016-05-26T03:25:17.766Z,14.32
2016-05-26T03:26:31.721Z,14.29
2016-05-26T03:27:31.099Z,14.27
2016-05-26T03:28:19.118Z,14.27
2016-05-26T07:31:59.849Z,18.33
2016-05-26T07:32:22.352Z,18.39
2016-05-26T07:33:22.355Z,18.39
2016-05-26T07:34:22.575Z,18.39
2016-05-26T07:35:22.375Z,18.3
2016-05-26T07:36:22.424Z,18.36
2016-05-26T07:37:22.239Z,18.33
2016-05-26T07:38:22.455Z,18.37
2016-05-26T07:39:22.466Z,18.35
2016-05-26T07:40:22.353Z,18.33
2016-05-26T07:41:22.552Z,18.35
2016-05-26T07:42:22.571Z,18.42
2016-05-26T07:43:22.833Z,18.42
2016-05-26T07:44:36.735Z,18.42
2016-05-26T07:45:22.652Z,18.44
2016-05-26T07:46:22.883Z,18.57
2016-05-26T07:47:22.532Z,18.52
2016-05-26T07:48:22.537Z,18.58
2016-05-26T07:49:22.701Z,18.58
2016-05-26T07:50:22.566Z,18.63
2016-05-26T07:51:22.728Z,18.63
2016-05-26T07:52:22.733Z,18.73
2016-05-26T07:53:22.753Z,18.81
2016-05-26T07:54:22.975Z,18.81
2016-05-26T07:55:22.808Z,18.88
2016-05-26T07:56:22.999Z,18.92
2016-05-26T07:57:23.034Z,18.92
2016-05-26T07:58:22.832Z,19.04
2016-05-26T07:59:22.852Z,19.11
2016-05-26T08:00:22.871Z,19.08
2016-05-26T08:01:22.857Z,19.14
2016-05-26T08:02:22.892Z,19.19
2016-05-26T08:03:22.879Z,19.23
2016-05-26T08:04:22.741Z,19.26
2016-05-26T08:05:22.947Z,19.29
2016-05-26T08:06:22.435Z,19.23
2016-05-26T08:07:22.937Z,19.41
2016-05-26T08:08:23.157Z,19.4
2016-05-26T08:09:22.958Z,19.46
2016-05-26T08:10:22.961Z,19.48
2016-05-26T08:12:22.841Z,19.48
2016-05-26T08:13:22.999Z,19.56
2016-05-26T08:14:23.002Z,19.54
2016-05-26T08:15:22.912Z,19.58
2016-05-26T08:16:23.196Z,19.63
2016-05-26T08:17:23.135Z,19.62
2016-05-26T08:18:23.122Z,19.61
2016-05-26T08:19:23.329Z,19.68
2016-05-26T08:20:23.112Z,19.66
2016-05-26T08:21:23.115Z,19.62
2016-05-26T08:22:22.961Z,19.56
2016-05-26T08:23:23.730Z,19.56
2016-05-26T08:24:23.170Z,19.5
2016-05-26T08:25:23.360Z,19.56
2016-05-26T08:26:24.597Z,19.47
2016-05-26T08:28:23.227Z,19.48
2016-05-26T08:29:23.199Z,19.46
2016-05-26T08:30:23.077Z,19.44
2016-05-26T08:31:23.094Z,19.46
2016-05-26T08:32:23.254Z,19.5
2016-05-26T08:33:23.258Z,19.55
2016-05-26T08:34:23.259Z,19.59
2016-05-26T08:35:22.965Z,19.61
2016-05-26T08:36:23.280Z,19.71
2016-05-26T08:37:23.518Z,19.76
2016-05-26T08:38:23.302Z,19.78
2016-05-26T08:39:23.336Z,19.91
2016-05-26T08:40:23.181Z,19.96
2016-05-26T08:41:23.200Z,19.96
2016-05-26T08:42:23.375Z,20.08
2016-05-26T08:43:23.409Z,20.05
2016-05-26T08:44:23.412Z,20.11
2016-05-26T08:45:23.398Z,20.23
2016-05-26T08:46:23.479Z,20.24
2016-05-26T08:47:23.123Z,20.21
2016-05-26T08:48:37.923Z,20.2
2016-05-26T08:49:23.737Z,20.28
2016-05-26T08:50:23.349Z,20.2
2016-05-26T08:51:23.681Z,20.26
2016-05-26T08:52:23.511Z,20.14
2016-05-26T08:53:23.717Z,20.21
2016-05-26T08:54:23.531Z,20.1
2016-05-26T08:55:23.534Z,20.06
2016-05-26T08:56:23.600Z,20.06
2016-05-26T08:57:23.431Z,20.02
2016-05-26T08:58:23.574Z,20.08
2016-05-26T08:59:23.639Z,20.02
2016-05-26T09:00:23.642Z,19.8
2016-05-26T09:01:23.707Z,19.78
2016-05-26T09:02:23.647Z,19.62
2016-05-26T09:03:24.197Z,19.58
2016-05-26T09:04:23.496Z,19.56
2016-05-26T09:05:23.796Z,19.4
2016-05-26T09:06:23.705Z,19.36
2016-05-26T09:07:24.379Z,19.21
2016-05-26T09:08:23.944Z,19.26
2016-05-26T09:09:24.385Z,19.19
2016-05-26T09:10:23.746Z,19.11
2016-05-26T09:11:24.655Z,19.16
2016-05-26T09:12:24.690Z,19.1
2016-05-26T09:13:23.801Z,19.02
2016-05-26T09:14:23.773Z,19
2016-05-26T09:15:23.791Z,18.95
2016-05-26T09:16:23.857Z,18.94
2016-05-26T09:17:24.937Z,19
2016-05-26T09:18:23.909Z,18.92
2016-05-26T09:19:24.068Z,19.04
2016-05-26T09:20:23.867Z,18.94
2016-05-26T09:21:24.401Z,19
2016-05-26T09:22:24.514Z,19.04
2016-05-26T09:23:23.876Z,19.18
2016-05-26T09:24:23.926Z,19.11
2016-05-26T09:25:23.927Z,19.22
2016-05-26T09:26:24.556Z,19.23
2016-05-26T09:27:24.339Z,19.41
2016-05-26T09:28:23.936Z,19.47
2016-05-26T09:29:23.814Z,19.51
2016-05-26T09:30:24.004Z,19.63
2016-05-26T09:31:24.053Z,19.65
2016-05-26T09:32:24.962Z,19.69
2016-05-26T09:33:24.247Z,19.73
2016-05-26T09:34:24.014Z,19.76
2016-05-26T09:35:25.377Z,19.78
2016-05-26T09:36:25.316Z,19.92
2016-05-26T09:37:24.085Z,19.91
2016-05-26T09:38:25.119Z,19.94
2016-05-26T09:39:24.091Z,19.91
2016-05-26T09:40:24.108Z,19.94
2016-05-26T09:41:23.986Z,19.99
2016-05-26T09:42:24.458Z,19.98
2016-05-26T09:43:25.320Z,19.99
2016-05-26T09:44:24.651Z,20.05
2016-05-26T09:45:24.560Z,20.03
2016-05-26T09:46:24.188Z,20.01
2016-05-26T09:47:24.221Z,20.02
2016-05-26T09:48:24.115Z,20.02
2016-05-26T09:49:24.227Z,20.05
2016-05-26T09:50:25.573Z,20.14
2016-05-26T09:51:24.092Z,20.1
2016-05-26T09:52:24.250Z,20.11
2016-05-26T09:53:25.191Z,20.24
2016-05-26T09:54:24.959Z,20.28
2016-05-26T09:55:24.806Z,20.29
2016-05-26T09:56:24.308Z,20.33
2016-05-26T09:57:24.326Z,20.36
2016-05-26T09:58:25.001Z,20.38
2016-05-26T09:59:25.317Z,20.57
2016-05-26T10:00:24.350Z,20.61
2016-05-26T10:01:24.369Z,20.76
2016-05-26T10:02:24.371Z,20.76
2016-05-26T10:03:25.702Z,20.77
2016-05-26T10:04:24.408Z,20.84
2016-05-26T10:05:24.630Z,20.91
2016-05-26T10:06:25.022Z,20.8
2016-05-26T10:07:25.213Z,20.89
2016-05-26T10:08:24.466Z,20.94
2016-05-26T10:09:24.311Z,20.92
2016-05-26T10:10:25.002Z,20.97
2016-05-26T10:11:24.677Z,20.91
2016-05-26T10:12:24.508Z,21.09
2016-05-26T10:13:24.541Z,20.99
2016-05-26T10:14:25.325Z,21.03
2016-05-26T10:15:24.563Z,21.01
2016-05-26T10:16:24.768Z,21.13
2016-05-26T10:17:25.192Z,21.1
2016-05-26T10:18:24.868Z,21.19
2016-05-26T10:19:24.604Z,21.17
2016-05-26T10:20:24.701Z,21.27
2016-05-26T10:21:24.906Z,21.27
2016-05-26T10:22:25.253Z,21.28
2016-05-26T10:23:39.318Z,21.34
2016-05-26T10:24:25.071Z,21.32
2016-05-26T10:25:24.698Z,21.4
2016-05-26T10:26:25.139Z,21.35
2016-05-26T10:27:24.735Z,21.43
2016-05-26T10:28:24.738Z,21.49
2016-05-26T10:29:24.600Z,21.49
2016-05-26T10:30:24.775Z,21.47
2016-05-26T10:31:24.464Z,21.52
2016-05-26T10:32:24.998Z,21.53
2016-05-26T10:33:25.330Z,21.52
2016-05-26T10:34:25.253Z,21.52
2016-05-26T10:35:25.178Z,21.53
2016-05-26T10:36:24.712Z,21.64
2016-05-26T10:37:25.356Z,21.65
2016-05-26T10:38:25.171Z,21.67
2016-05-26T10:39:38.971Z,21.77
2016-05-26T10:40:24.927Z,21.84
2016-05-26T10:41:24.601Z,21.8
2016-05-26T10:42:39.041Z,21.8
2016-05-26T10:43:25.418Z,21.77
2016-05-26T10:44:24.796Z,21.75
2016-05-26T10:45:25.175Z,21.68
2016-05-26T10:46:38.911Z,21.68
2016-05-26T10:47:25.211Z,21.77
2016-05-26T10:48:24.932Z,21.84
2016-05-26T10:49:24.919Z,21.79
2016-05-26T10:50:25.062Z,21.82
2016-05-26T10:51:25.050Z,21.77
2016-05-26T10:52:25.131Z,21.74
2016-05-26T10:53:25.102Z,21.79
2016-05-26T10:54:25.214Z,21.79
2016-05-26T10:56:25.141Z,21.83
2016-05-26T10:57:25.003Z,21.79
2016-05-26T10:58:25.162Z,21.91
2016-05-26T10:59:25.181Z,21.77
2016-05-26T11:00:25.245Z,21.84
2016-05-26T11:01:25.201Z,21.9
2016-05-26T11:02:25.251Z,21.83
2016-05-26T11:03:25.425Z,21.84
2016-05-26T11:04:25.256Z,21.86
2016-05-26T11:05:25.259Z,21.91
2016-05-26T11:06:25.294Z,21.9
2016-05-26T11:07:25.280Z,22.02
2016-05-26T11:08:25.517Z,22.09
2016-05-26T11:09:25.317Z,22.15
2016-05-26T11:10:25.335Z,22.17
2016-05-26T11:11:25.353Z,22.24
2016-05-26T11:12:25.356Z,22.24
2016-05-26T11:13:34.093Z,22.3
2016-05-26T11:14:25.408Z,22.24
2016-05-26T11:15:25.442Z,22.21
2016-05-26T11:16:25.460Z,22.3
2016-05-26T11:17:25.635Z,22.24
2016-05-26T11:18:25.310Z,22.21
2016-05-26T11:19:25.313Z,22.27
2016-05-26T11:20:25.737Z,22.28
2016-05-26T11:21:25.490Z,22.31
2016-05-26T11:22:25.508Z,22.36
2016-05-26T11:23:25.417Z,22.42
2016-05-26T11:24:25.545Z,22.46
2016-05-26T11:25:25.563Z,22.51
2016-05-26T11:26:25.565Z,22.57
2016-05-26T11:27:25.428Z,22.67
2016-05-26T11:28:25.820Z,22.68
2016-05-26T11:29:25.606Z,22.7
2016-05-26T11:30:25.639Z,22.82
2016-05-26T11:31:25.486Z,22.88
2016-05-26T11:32:25.659Z,22.95
2016-05-26T11:33:25.678Z,23
2016-05-26T11:34:25.556Z,23.04
2016-05-26T11:35:25.700Z,23.15
2016-05-26T11:36:25.952Z,23.05
2016-05-26T11:37:25.767Z,23.01
2016-05-26T11:38:25.755Z,23.01
2016-05-26T11:39:26.022Z,23.07
2016-05-26T11:40:25.806Z,23.05
2016-05-26T11:41:28.794Z,23.13
2016-05-26T11:42:26.016Z,23.13
2016-05-26T11:43:26.033Z,23.04
2016-05-26T11:44:25.849Z,23.09
2016-05-26T11:45:26.085Z,23.07
2016-05-26T11:46:25.854Z,23.13
2016-05-26T11:47:25.872Z,23.07
2016-05-26T11:48:26.203Z,23.1
2016-05-26T11:49:26.143Z,23.05
2016-05-26T11:50:25.943Z,23.09
2016-05-26T11:51:26.133Z,23.05
2016-05-26T11:52:25.980Z,23.1
2016-05-26T11:53:25.998Z,23.15
2016-05-26T11:54:26.001Z,23.32
2016-05-26T11:55:25.862Z,23.19
2016-05-26T11:56:25.913Z,23.31
2016-05-26T11:57:26.259Z,23.38
2016-05-26T11:58:26.058Z,23.47
2016-05-26T11:59:26.062Z,23.55
2016-05-26T12:00:26.079Z,23.66
2016-05-26T12:01:26.175Z,23.47
2016-05-26T12:02:25.959Z,23.51
2016-05-26T12:03:26.228Z,23.53
2016-05-26T12:04:26.356Z,23.42
2016-05-26T12:05:26.155Z,23.54
2016-05-26T12:06:26.173Z,23.57
2016-05-26T12:07:26.067Z,23.54
2016-05-26T12:08:26.085Z,23.63
2016-05-26T12:09:26.245Z,23.65
2016-05-26T12:10:26.325Z,23.5
2016-05-26T12:11:26.264Z,23.68
2016-05-26T12:12:26.158Z,23.6
2016-05-26T12:13:26.317Z,23.6
2016-05-26T12:14:25.977Z,23.55
2016-05-26T12:15:26.338Z,23.72
2016-05-26T12:16:26.341Z,23.55
2016-05-26T12:17:26.359Z,23.66
2016-05-26T12:18:26.393Z,23.58
2016-05-26T12:19:26.240Z,23.55
2016-05-26T12:20:26.118Z,23.63
2016-05-26T12:21:26.245Z,23.55
2016-05-26T12:22:26.451Z,23.54
2016-05-26T12:23:26.437Z,23.54
2016-05-26T12:24:26.472Z,23.55
2016-05-26T12:25:26.474Z,23.57
2016-05-26T12:26:26.492Z,23.58
2016-05-26T12:27:26.543Z,23.57
2016-05-26T12:28:26.514Z,23.6
2016-05-26T12:29:26.548Z,23.66
2016-05-26T12:30:26.613Z,23.57
2016-05-26T12:31:26.568Z,23.65
2016-05-26T12:32:26.587Z,23.68
2016-05-26T12:33:26.293Z,23.54
2016-05-26T12:34:26.671Z,23.57
2016-05-26T12:35:26.501Z,23.6
2016-05-26T12:36:26.519Z,23.66
2016-05-26T12:37:26.664Z,23.78
2016-05-26T12:38:26.682Z,23.83
2016-05-26T12:39:26.715Z,23.87
2016-05-26T12:40:26.750Z,23.83
2016-05-26T12:41:26.595Z,23.83
2016-05-26T12:42:26.598Z,23.79
2016-05-26T12:43:26.632Z,23.78
2016-05-26T12:44:26.761Z,23.84
2016-05-26T12:45:27.185Z,23.95
2016-05-26T12:46:26.891Z,23.83
2016-05-26T12:47:26.893Z,23.7
2016-05-26T12:48:26.864Z,23.76
2016-05-26T12:49:27.055Z,23.7
2016-05-26T12:50:26.948Z,23.72
2016-05-26T12:51:27.091Z,23.63
2016-05-26T12:52:26.938Z,23.6
2016-05-26T12:53:26.769Z,23.5
2016-05-26T12:54:26.943Z,23.57
2016-05-26T12:55:26.946Z,23.57
2016-05-26T12:56:26.980Z,23.65
2016-05-26T12:57:27.014Z,23.66
2016-05-26T12:58:26.360Z,23.63
2016-05-26T12:59:27.066Z,23.55
2016-05-26T13:00:27.147Z,23.61
2016-05-26T13:01:27.196Z,23.61
2016-05-26T13:02:27.199Z,23.58
2016-05-26T13:03:27.515Z,23.63
2016-05-26T13:04:27.251Z,23.54
2016-05-26T13:05:27.660Z,23.63
2016-05-26T13:06:27.163Z,23.63
2016-05-26T13:07:27.259Z,23.7
2016-05-26T13:08:27.372Z,23.72
2016-05-26T13:09:27.343Z,23.66
2016-05-26T13:10:27.331Z,23.7
2016-05-26T13:11:27.458Z,23.72
2016-05-26T13:12:27.367Z,23.75
2016-05-26T13:13:28.573Z,23.83
2016-05-26T13:14:27.372Z,23.8
2016-05-26T13:15:27.453Z,23.8
2016-05-26T13:16:27.861Z,23.8
2016-05-26T13:17:27.583Z,23.79
2016-05-26T13:18:28.117Z,23.66
2016-05-26T13:19:27.447Z,23.66
2016-05-26T13:20:27.716Z,23.66
2016-05-26T13:21:27.532Z,23.66
2016-05-26T13:22:28.393Z,23.69
2016-05-26T13:23:27.724Z,23.68
2016-05-26T13:24:27.883Z,23.69
2016-05-26T13:25:27.540Z,23.68
2016-05-26T13:26:27.623Z,23.69
2016-05-26T13:27:27.891Z,23.76
2016-05-26T13:28:27.722Z,23.8
2016-05-26T13:29:27.519Z,23.79
2016-05-26T13:30:27.569Z,23.83
2016-05-26T13:31:28.246Z,23.83
2016-05-26T13:32:27.793Z,23.88
2016-05-26T13:33:28.360Z,23.98
2016-05-26T13:34:27.642Z,23.94
2016-05-26T13:35:27.660Z,23.93
2016-05-26T13:36:27.678Z,23.97
2016-05-26T13:37:27.729Z,24.1
2016-05-26T13:38:27.762Z,24.31
2016-05-26T13:39:27.764Z,24.45
2016-05-26T13:40:27.721Z,24.57
2016-05-26T13:41:27.817Z,24.67
2016-05-26T13:42:27.679Z,24.78
2016-05-26T13:43:27.713Z,24.83
2016-05-26T13:44:27.716Z,24.85
2016-05-26T13:45:27.734Z,24.87
2016-05-26T13:46:27.752Z,24.93
2016-05-26T13:47:27.755Z,25.05
2016-05-26T13:48:28.022Z,25.21
2016-05-26T13:49:27.635Z,25.23
2016-05-26T13:50:27.794Z,25.28
2016-05-26T13:51:27.828Z,25.18
2016-05-26T13:52:27.675Z,25.17
2016-05-26T13:53:27.896Z,25.15
2016-05-26T13:54:27.914Z,25.21
2016-05-26T13:55:27.902Z,25.1
2016-05-26T13:56:27.905Z,25.02
2016-05-26T13:57:27.954Z,24.88
2016-05-26T13:58:27.628Z,24.91
2016-05-26T13:59:27.960Z,25.05
2016-05-26T14:00:27.993Z,25.08
2016-05-26T14:01:27.855Z,25.2
2016-05-26T14:02:28.014Z,25.17
2016-05-26T14:03:28.017Z,25.23
2016-05-26T14:04:27.895Z,25.21
2016-05-26T14:05:28.054Z,25.24
2016-05-26T14:06:28.087Z,25.27
2016-05-26T14:07:27.934Z,25.23
2016-05-26T14:08:27.656Z,25.32
2016-05-26T14:10:27.973Z,25.14
2016-05-26T14:11:28.007Z,25.14
2016-05-26T14:12:28.181Z,25.13
2016-05-26T14:13:28.184Z,25.15
2016-05-26T14:14:28.203Z,25.03
2016-05-26T14:15:28.064Z,25.08
2016-05-26T14:16:28.442Z,25.08
2016-05-26T14:17:28.460Z,24.99
2016-05-26T14:18:28.729Z,24.83
2016-05-26T14:19:28.013Z,24.83
2016-05-26T14:20:28.327Z,24.8
2016-05-26T14:21:28.361Z,24.78
2016-05-26T14:22:28.583Z,24.78
2016-05-26T14:23:28.571Z,24.78
2016-05-26T14:24:28.214Z,24.81
2016-05-26T14:25:28.388Z,24.81
2016-05-26T14:26:28.407Z,24.77
2016-05-26T14:27:28.410Z,24.71
2016-05-26T14:28:28.724Z,24.6
2016-05-26T14:29:28.821Z,24.49
2016-05-26T14:30:28.511Z,24.43
2016-05-26T14:31:28.482Z,24.22
2016-05-26T14:32:28.502Z,24.2
2016-05-26T14:33:28.551Z,24.12
2016-05-26T14:34:28.756Z,24.12
2016-05-26T14:35:28.587Z,24
2016-05-26T14:36:28.574Z,23.95
2016-05-26T14:37:28.593Z,23.95
2016-05-26T14:38:28.454Z,24.02
2016-05-26T14:39:28.614Z,23.9
2016-05-26T14:40:28.616Z,23.76
2016-05-26T14:41:28.665Z,23.72
2016-05-26T14:42:28.872Z,23.73
2016-05-26T14:43:28.686Z,23.61
2016-05-26T14:44:28.690Z,23.68
2016-05-26T14:45:28.551Z,23.7
2016-05-26T14:46:28.929Z,23.65
2016-05-26T14:47:28.463Z,23.65
2016-05-26T14:48:28.888Z,23.65
2016-05-26T14:49:28.844Z,23.6
2016-05-26T14:50:28.847Z,23.7
2016-05-26T14:51:28.802Z,23.7
2016-05-26T14:52:28.320Z,23.72
2016-05-26T14:53:28.698Z,23.76
2016-05-26T14:54:28.888Z,23.75
2016-05-26T14:55:28.704Z,23.78
2016-05-26T14:56:28.925Z,23.76
2016-05-26T14:57:29.083Z,23.9
2016-05-26T14:58:29.118Z,23.91
2016-05-26T14:59:28.933Z,24.05
2016-05-26T15:00:28.935Z,24.15
2016-05-26T15:01:28.814Z,24.22
2016-05-26T15:02:28.972Z,24.18
2016-05-26T15:03:28.522Z,24.2
2016-05-26T15:04:28.524Z,24.27
2016-05-26T15:05:29.262Z,24.42
2016-05-26T15:06:29.062Z,24.42
2016-05-26T15:07:29.064Z,24.57
2016-05-26T15:08:29.082Z,24.62
2016-05-26T15:09:29.070Z,24.77
2016-05-26T15:10:28.962Z,24.83
2016-05-26T15:11:29.121Z,24.6
2016-05-26T15:12:29.218Z,24.58
2016-05-26T15:13:29.018Z,24.52
2016-05-26T15:14:29.161Z,24.46
2016-05-26T15:15:29.054Z,24.42
2016-05-26T15:16:29.197Z,24.39
2016-05-26T15:17:43.281Z,24.18
2016-05-26T15:18:28.937Z,24.21
2016-05-26T15:19:29.253Z,24.18
2016-05-26T15:20:29.255Z,24.06
2016-05-26T15:21:29.320Z,24.12
2016-05-26T15:22:29.276Z,24.13
2016-05-26T15:23:29.466Z,24.1
2016-05-26T15:24:29.172Z,23.98
2016-05-26T15:25:29.377Z,24.06
2016-05-26T15:26:30.553Z,24.08
2016-05-26T15:27:29.414Z,24.03
2016-05-26T15:28:29.277Z,24.05
2016-05-26T15:29:29.576Z,24.13
2016-05-26T15:30:28.922Z,24.16
2016-05-26T15:31:29.425Z,24.12
2016-05-26T15:32:29.427Z,24.15
2016-05-26T15:33:30.196Z,24.18
2016-05-26T15:34:30.652Z,24.2
2016-05-26T15:35:29.482Z,24.18
2016-05-26T15:36:29.502Z,24.21
2016-05-26T15:37:29.504Z,24.22
2016-05-26T15:38:29.553Z,24.31
2016-05-26T15:39:29.572Z,24.39
2016-05-26T15:40:29.762Z,24.4
2016-05-26T15:41:29.562Z,24.43
2016-05-26T15:42:29.612Z,24.35
2016-05-26T15:43:29.645Z,24.43
2016-05-26T15:44:29.648Z,24.4
2016-05-26T15:45:29.650Z,24.34
2016-05-26T15:46:29.653Z,24.3
2016-05-26T15:47:29.672Z,24.18
2016-05-26T15:48:29.784Z,24.12
2016-05-26T15:49:29.692Z,24.09
2016-05-26T15:50:29.586Z,24.06
2016-05-26T15:51:29.276Z,24.05
2016-05-26T15:52:29.778Z,24.02
2016-05-26T15:53:29.984Z,24
2016-05-26T15:54:29.847Z,23.97
2016-05-26T15:55:29.818Z,23.95
2016-05-26T15:56:29.805Z,24.03
2016-05-26T15:57:29.839Z,23.95
2016-05-26T15:58:29.685Z,24
2016-05-26T15:59:29.705Z,23.94
2016-05-26T16:00:29.877Z,23.94
2016-05-26T16:01:29.927Z,23.97
2016-05-26T16:02:29.900Z,24
2016-05-26T16:03:30.199Z,23.95
2016-05-26T16:04:29.952Z,24.02
2016-05-26T16:05:29.985Z,23.98
2016-05-26T16:06:29.988Z,23.88
2016-05-26T16:07:44.071Z,23.95
2016-05-26T16:08:30.024Z,23.9
2016-05-26T16:09:30.012Z,23.8
2016-05-26T16:10:30.045Z,23.87
2016-05-26T16:11:30.049Z,23.83
2016-05-26T16:12:30.067Z,23.7
2016-05-26T16:13:29.929Z,23.66
2016-05-26T16:14:30.182Z,23.61
2016-05-26T16:15:30.356Z,23.69
2016-05-26T16:16:30.328Z,23.68
2016-05-26T16:17:30.127Z,23.69
2016-05-26T16:18:30.161Z,23.65
2016-05-26T16:19:30.179Z,23.68
2016-05-26T16:20:30.182Z,23.63
2016-05-26T16:21:30.404Z,23.58
2016-05-26T16:22:30.437Z,23.58
2016-05-26T16:23:30.237Z,23.68
2016-05-26T16:24:30.255Z,23.57
2016-05-26T16:25:30.305Z,23.61
2016-05-26T16:26:30.463Z,23.54
2016-05-26T16:27:30.310Z,23.58
2016-05-26T16:28:30.313Z,23.57
2016-05-26T16:29:30.316Z,23.6
2016-05-26T16:30:30.350Z,23.66
2016-05-26T16:31:30.368Z,23.58
2016-05-26T16:32:30.354Z,23.48
2016-05-26T16:33:30.561Z,23.57
2016-05-26T16:34:30.407Z,23.58
2016-05-26T16:35:30.426Z,23.65
2016-05-26T16:36:30.444Z,23.6
2016-05-26T16:37:30.650Z,23.63
2016-05-26T16:38:30.652Z,23.61
2016-05-26T16:39:30.468Z,23.6
2016-05-26T16:40:30.673Z,23.58
2016-05-26T16:41:30.332Z,23.63
2016-05-26T16:42:30.507Z,23.63
2016-05-26T16:43:30.400Z,23.61
2016-05-26T16:44:30.504Z,23.68
2016-05-26T16:45:30.610Z,23.66
2016-05-26T16:46:30.669Z,23.53
2016-05-26T16:47:30.683Z,23.47
2016-05-26T16:48:30.757Z,23.46
2016-05-26T16:49:30.787Z,23.39
2016-05-26T16:50:30.800Z,23.38
2016-05-26T16:51:30.811Z,23.4
2016-05-26T16:52:30.526Z,23.38
2016-05-26T16:53:30.835Z,23.38
2016-05-26T16:54:30.857Z,23.46
2016-05-26T16:55:31.098Z,23.36
2016-05-26T16:56:44.985Z,23.25
2016-05-26T16:57:30.938Z,23.23
2016-05-26T16:58:30.991Z,23.27
2016-05-26T16:59:31.026Z,23.31
2016-05-26T17:00:30.968Z,23.33
2016-05-26T17:01:31.191Z,23.22
2016-05-26T17:02:31.023Z,23.2
2016-05-26T17:03:31.042Z,23.19
2016-05-26T17:04:30.405Z,23.17
2016-05-26T17:05:31.048Z,23.09
2016-05-26T17:06:31.067Z,23.15